createdAt,value
2023-03-13T00:01:26.901Z,0.73
2023-03-13T00:03:57.194Z,0.83
2023-03-13T00:06:27.216Z,1.00
2023-03-13T00:08:55.480Z,0.80
2023-03-13T00:11:23.252Z,0.70
2023-03-13T00:13:58.035Z,0.90
2023-03-13T00:16:27.770Z,0.70
2023-03-13T00:18:57.554Z,0.80
2023-03-13T00:21:27.185Z,1.00
2023-03-13T00:23:55.433Z,1.20
2023-03-13T00:26:25.163Z,0.60
2023-03-13T00:28:53.332Z,0.90
2023-03-13T00:31:26.961Z,0.50
2023-03-13T00:33:58.196Z,0.90
2023-03-13T00:36:31.752Z,0.50
2023-03-13T00:39:00.391Z,0.60
2023-03-13T00:41:30.407Z,0.80
2023-03-13T00:43:58.308Z,0.70
2023-03-13T00:46:28.337Z,1.03
2023-03-13T00:48:57.066Z,0.90
2023-03-13T00:51:27.253Z,0.60
2023-03-13T00:53:57.291Z,0.60
2023-03-13T00:56:25.139Z,0.97
2023-03-13T00:58:53.378Z,1.00
2023-03-13T01:01:28.224Z,0.90
2023-03-13T01:03:58.640Z,1.00
2023-03-13T01:06:28.923Z,0.80
2023-03-13T01:08:59.859Z,1.77
2023-03-13T01:11:30.970Z,1.43
2023-03-13T01:14:04.066Z,3.37
2023-03-13T01:16:34.262Z,4.00
2023-03-13T01:19:08.235Z,4.90
2023-03-13T01:21:36.337Z,5.27
2023-03-13T01:24:04.408Z,5.03
2023-03-13T01:26:32.690Z,4.43
2023-03-13T01:29:00.431Z,3.17
2023-03-13T01:31:31.810Z,3.00
2023-03-13T01:34:02.703Z,3.23
2023-03-13T01:36:30.923Z,5.17
2023-03-13T01:39:00.924Z,5.40
2023-03-13T01:41:30.803Z,5.47
2023-03-13T01:43:59.245Z,5.37
2023-03-13T01:46:33.190Z,4.73
2023-03-13T01:49:21.372Z,5.10
2023-03-13T01:52:11.400Z,4.40
2023-03-13T01:54:54.424Z,4.63
2023-03-13T01:57:41.132Z,4.13
2023-03-13T02:00:12.129Z,4.57
2023-03-13T02:02:47.101Z,5.90
2023-03-13T02:05:17.133Z,7.53
2023-03-13T02:07:59.484Z,9.33
2023-03-13T02:10:31.525Z,10.60
2023-03-13T02:13:02.218Z,13.30
2023-03-13T02:15:31.628Z,12.23
2023-03-13T02:18:00.277Z,13.10
2023-03-13T02:20:28.033Z,13.73
2023-03-13T02:23:10.856Z,17.00
2023-03-13T02:25:53.410Z,16.20
2023-03-13T02:28:35.147Z,17.40
2023-03-13T02:31:07.017Z,15.37
2023-03-13T02:33:44.769Z,13.50
2023-03-13T02:36:17.315Z,13.23
2023-03-13T02:38:59.756Z,10.93
2023-03-13T02:41:29.136Z,8.20
2023-03-13T02:43:58.924Z,6.20
2023-03-13T02:46:26.827Z,4.57
2023-03-13T02:48:57.222Z,4.33
2023-03-13T02:51:41.627Z,4.23
2023-03-13T02:54:14.470Z,3.37
2023-03-13T02:56:45.668Z,3.50
2023-03-13T02:59:13.276Z,2.80
2023-03-13T03:01:43.683Z,2.63
2023-03-13T03:04:11.656Z,2.17
2023-03-13T03:06:39.443Z,2.30
2023-03-13T03:09:07.017Z,1.70
2023-03-13T03:11:36.925Z,1.23
2023-03-13T03:14:08.879Z,2.00
2023-03-13T03:16:40.843Z,1.40
2023-03-13T03:19:11.156Z,1.50
2023-03-13T03:21:38.827Z,1.20
2023-03-13T03:24:06.925Z,1.20
2023-03-13T03:26:34.773Z,1.10
2023-03-13T03:29:05.674Z,0.97
2023-03-13T03:31:33.375Z,1.63
2023-03-13T03:34:00.952Z,1.30
2023-03-13T03:36:29.341Z,1.40
2023-03-13T03:38:57.046Z,0.97
2023-03-13T03:41:27.226Z,1.13
2023-03-13T03:43:57.961Z,0.80
2023-03-13T03:46:31.686Z,0.97
2023-03-13T03:48:59.359Z,1.10
2023-03-13T03:51:26.809Z,1.20
2023-03-13T03:53:54.835Z,0.80
2023-03-13T03:56:22.583Z,0.80
2023-03-13T03:58:54.752Z,1.00
2023-03-13T04:01:28.459Z,0.90
2023-03-13T04:03:56.095Z,1.50
2023-03-13T04:06:24.075Z,0.87
2023-03-13T04:08:51.634Z,1.00
2023-03-13T04:11:24.612Z,1.40
2023-03-13T04:13:55.118Z,1.07
2023-03-13T04:16:23.554Z,0.67
2023-03-13T04:18:52.063Z,1.00
2023-03-13T04:21:20.064Z,1.47
2023-03-13T04:23:55.172Z,1.23
2023-03-13T04:26:23.411Z,1.10
2023-03-13T04:28:53.319Z,1.33
2023-03-13T04:31:33.543Z,1.00
2023-03-13T04:34:19.594Z,1.20
2023-03-13T04:36:55.684Z,1.20
2023-03-13T04:39:41.853Z,1.10
2023-03-13T04:42:20.069Z,0.73
2023-03-13T04:44:59.987Z,1.13
2023-03-13T04:47:53.749Z,1.63
2023-03-13T04:50:31.305Z,0.70
2023-03-13T04:53:13.419Z,1.17
2023-03-13T04:55:50.412Z,1.30
2023-03-13T04:58:38.459Z,1.30
2023-03-13T05:01:19.706Z,1.10
2023-03-13T05:04:11.179Z,1.00
2023-03-13T05:06:44.860Z,1.20
2023-03-13T05:09:38.783Z,1.37
2023-03-13T05:12:25.803Z,1.00
2023-03-13T05:15:00.914Z,1.20
2023-03-13T05:17:54.975Z,1.73
2023-03-13T05:20:45.696Z,1.30
2023-03-13T05:23:32.175Z,1.40
2023-03-13T05:26:09.754Z,1.20
2023-03-13T05:29:09.941Z,1.57
2023-03-13T05:31:56.370Z,1.10
2023-03-13T05:34:43.735Z,1.40
2023-03-13T05:37:34.917Z,1.30
2023-03-13T05:40:34.628Z,2.67
2023-03-13T05:43:25.338Z,1.13
2023-03-13T05:46:19.789Z,1.73
2023-03-13T05:48:55.331Z,1.13
2023-03-13T05:51:41.427Z,1.50
2023-03-13T05:54:27.530Z,1.20
2023-03-13T05:57:18.048Z,1.50
2023-03-13T06:00:25.578Z,1.20
2023-03-13T06:03:22.027Z,1.13
2023-03-13T06:05:58.325Z,0.90
2023-03-13T06:08:39.823Z,1.40
2023-03-13T06:11:07.498Z,1.67
2023-03-13T06:13:35.029Z,1.33
2023-03-13T06:16:11.205Z,1.30
2023-03-13T06:18:44.390Z,1.20
2023-03-13T06:21:11.942Z,1.77
2023-03-13T06:23:39.566Z,1.03
2023-03-13T06:26:07.248Z,1.50
2023-03-13T06:28:34.838Z,1.23
2023-03-13T06:31:04.923Z,1.20
2023-03-13T06:33:33.722Z,1.30
2023-03-13T06:36:02.802Z,1.63
2023-03-13T06:38:30.663Z,1.00
2023-03-13T06:40:59.540Z,1.30
2023-03-13T06:43:27.694Z,1.50
2023-03-13T06:45:55.348Z,1.20
2023-03-13T06:48:24.345Z,1.40
2023-03-13T06:50:52.040Z,1.10
2023-03-13T06:53:20.846Z,1.23
2023-03-13T06:55:50.235Z,1.40
2023-03-13T06:58:31.754Z,1.30
2023-03-13T07:01:07.081Z,1.30
2023-03-13T07:03:35.606Z,1.40
2023-03-13T07:06:04.677Z,1.63
2023-03-13T07:08:32.992Z,1.52
2023-03-13T07:11:06.630Z,1.48
2023-03-13T07:13:34.463Z,1.38
2023-03-13T07:16:08.251Z,1.70
2023-03-13T07:18:38.455Z,1.25
2023-03-13T07:21:15.442Z,1.60
2023-03-13T07:23:42.873Z,2.10
2023-03-13T07:26:15.895Z,1.60
2023-03-13T07:28:44.021Z,1.27
2023-03-13T07:31:19.613Z,1.40
2023-03-13T07:33:48.036Z,1.42
2023-03-13T07:36:16.509Z,1.65
2023-03-13T07:38:48.046Z,1.38
2023-03-13T07:41:16.215Z,1.17
2023-03-13T07:43:43.751Z,1.38
2023-03-13T07:46:14.471Z,1.58
2023-03-13T07:48:43.355Z,1.45
2023-03-13T07:51:30.328Z,1.27
2023-03-13T07:54:04.586Z,1.17
2023-03-13T07:56:32.033Z,1.40
2023-03-13T07:58:59.518Z,1.35
2023-03-13T08:01:30.535Z,1.33
2023-03-13T08:04:01.368Z,0.90
2023-03-13T08:06:33.769Z,1.50
2023-03-13T08:09:02.586Z,1.23
2023-03-13T08:11:30.479Z,1.20
2023-03-13T08:13:58.555Z,1.42
2023-03-13T08:16:28.742Z,1.40
2023-03-13T08:18:58.955Z,2.40
2023-03-13T08:21:29.471Z,1.42
2023-03-13T08:24:03.509Z,1.40
2023-03-13T08:26:32.068Z,1.40
2023-03-13T08:29:08.475Z,1.23
2023-03-13T08:31:49.013Z,1.63
2023-03-13T08:34:17.674Z,1.20
2023-03-13T08:36:45.623Z,1.85
2023-03-13T08:39:18.540Z,1.63
2023-03-13T08:41:46.852Z,1.42
2023-03-13T08:44:17.080Z,1.40
2023-03-13T08:46:45.026Z,1.55
2023-03-13T08:49:13.484Z,1.65
2023-03-13T08:51:41.264Z,1.58
2023-03-13T08:54:08.934Z,1.73
2023-03-13T08:56:36.960Z,1.20
2023-03-13T08:59:05.709Z,1.55
2023-03-13T09:01:35.215Z,1.25
2023-03-13T09:04:08.557Z,2.00
2023-03-13T09:06:38.722Z,1.70
2023-03-13T09:09:08.112Z,1.02
2023-03-13T09:11:37.264Z,1.75
2023-03-13T09:14:08.280Z,1.38
2023-03-13T09:16:36.181Z,1.40
2023-03-13T09:19:04.475Z,1.40
2023-03-13T09:21:35.388Z,1.20
2023-03-13T09:24:03.493Z,1.30
2023-03-13T09:26:31.729Z,1.27
2023-03-13T09:28:59.624Z,1.30
2023-03-13T09:31:30.650Z,1.52
2023-03-13T09:33:58.778Z,1.23
2023-03-13T09:36:27.210Z,1.20
2023-03-13T09:38:56.606Z,1.27
2023-03-13T09:41:34.735Z,1.30
2023-03-13T09:44:14.465Z,1.23
2023-03-13T09:46:54.190Z,1.50
2023-03-13T09:49:32.587Z,1.25
2023-03-13T09:52:07.797Z,1.45
2023-03-13T09:54:39.849Z,1.08
2023-03-13T09:57:32.837Z,1.35
2023-03-13T10:00:12.545Z,1.30
2023-03-13T10:02:44.830Z,1.40
2023-03-13T10:05:22.638Z,1.42
2023-03-13T10:07:50.907Z,1.27
2023-03-13T10:10:27.689Z,2.10
2023-03-13T10:13:17.900Z,1.60
2023-03-13T10:15:52.536Z,1.38
2023-03-13T10:18:22.719Z,1.70
2023-03-13T10:21:00.022Z,1.40
2023-03-13T10:23:46.985Z,1.50
2023-03-13T10:26:22.561Z,1.30
2023-03-13T10:28:52.142Z,1.20
2023-03-13T10:31:33.170Z,1.53
2023-03-13T10:34:12.626Z,1.60
2023-03-13T10:36:43.181Z,2.70
2023-03-13T10:39:30.004Z,1.50
2023-03-13T10:42:19.344Z,1.13
2023-03-13T10:44:46.983Z,1.40
2023-03-13T10:47:15.596Z,1.33
2023-03-13T10:49:56.854Z,1.30
2023-03-13T10:52:32.591Z,1.58
2023-03-13T10:55:07.719Z,1.27
2023-03-13T10:57:36.943Z,1.40
2023-03-13T11:01:16.487Z,1.25
2023-03-13T11:13:11.193Z,1.60
2023-03-13T11:16:00.524Z,1.30
2023-03-13T11:18:41.498Z,1.33
2023-03-13T11:22:14.861Z,1.73
2023-03-13T11:25:41.202Z,1.70
2023-03-13T11:32:47.855Z,1.60
2023-03-13T11:35:36.387Z,1.87
2023-03-13T11:38:13.237Z,2.00
2023-03-13T11:40:59.700Z,2.47
2023-03-13T11:43:45.514Z,2.20
2023-03-13T11:46:26.146Z,1.93
2023-03-13T11:49:05.757Z,2.30
2023-03-13T11:51:59.900Z,2.07
2023-03-13T11:54:54.595Z,1.70
2023-03-13T11:57:30.874Z,2.07
2023-03-13T12:00:33.892Z,1.60
2023-03-13T12:03:30.772Z,1.33
2023-03-13T12:06:00.446Z,1.57
2023-03-13T12:08:34.655Z,2.00
2023-03-13T12:11:48.301Z,1.90
2023-03-13T12:14:47.453Z,1.83
2023-03-13T12:17:41.169Z,1.77
2023-03-13T12:20:13.654Z,2.00
2023-03-13T12:23:03.007Z,2.05
2023-03-13T12:25:39.997Z,1.80
2023-03-13T12:28:32.107Z,2.65
2023-03-13T12:31:06.109Z,1.75
2023-03-13T12:33:44.501Z,2.15
2023-03-13T12:36:20.651Z,2.10
2023-03-13T12:38:55.836Z,1.92
2023-03-13T12:41:28.460Z,2.08
2023-03-13T12:44:11.490Z,1.60
2023-03-13T12:46:47.400Z,1.52
2023-03-13T12:49:20.963Z,1.60
2023-03-13T12:52:35.101Z,1.60
2023-03-13T12:55:18.311Z,1.40
2023-03-13T12:58:10.762Z,1.50
2023-03-13T13:00:41.075Z,1.30
2023-03-13T13:03:17.472Z,1.10
2023-03-13T13:06:13.592Z,1.65
2023-03-13T13:09:03.183Z,1.52
2023-03-13T13:11:33.776Z,1.83
2023-03-13T13:14:03.226Z,1.60
2023-03-13T13:16:33.644Z,1.40
2023-03-13T13:19:43.477Z,1.67
2023-03-13T13:22:38.720Z,1.10
2023-03-13T13:25:18.611Z,0.90
2023-03-13T13:27:47.542Z,1.47
2023-03-13T13:30:18.604Z,1.00
2023-03-13T13:33:10.372Z,1.57
2023-03-13T13:35:38.136Z,1.00
2023-03-13T13:38:20.419Z,1.37
2023-03-13T13:41:06.406Z,1.10
2023-03-13T13:43:39.913Z,1.10
2023-03-13T13:46:31.563Z,0.90
2023-03-13T13:49:08.535Z,1.03
2023-03-13T13:51:40.701Z,0.98
2023-03-13T13:54:29.940Z,1.10
2023-03-13T13:57:08.043Z,1.10
2023-03-13T14:00:05.598Z,1.10
2023-03-13T14:02:46.329Z,1.10
2023-03-13T14:05:21.086Z,1.07
2023-03-13T14:08:03.916Z,1.00
2023-03-13T14:10:37.099Z,1.07
2023-03-13T14:13:15.050Z,1.27
2023-03-13T14:15:53.513Z,0.98
2023-03-13T14:18:27.738Z,2.30
2023-03-13T14:20:55.236Z,1.10
2023-03-13T14:23:52.534Z,1.00
2023-03-13T14:26:19.970Z,1.17
2023-03-13T14:29:08.331Z,1.40
2023-03-13T14:31:38.933Z,1.37
2023-03-13T14:34:09.685Z,1.30
2023-03-13T14:36:51.068Z,2.00
2023-03-13T14:39:37.239Z,1.33
2023-03-13T14:42:16.037Z,1.20
2023-03-13T14:44:47.419Z,1.43
2023-03-13T14:47:30.771Z,1.30
2023-03-13T14:50:01.359Z,1.00
2023-03-13T14:52:32.656Z,1.07
2023-03-13T14:55:26.161Z,1.37
2023-03-13T14:58:16.578Z,1.63
2023-03-13T15:00:45.735Z,1.20
2023-03-13T15:03:16.994Z,1.30
2023-03-13T15:06:07.375Z,1.07
2023-03-13T15:08:38.262Z,1.10
2023-03-13T15:12:03.932Z,1.27
2023-03-13T15:14:34.300Z,1.47
2023-03-13T15:17:04.290Z,1.13
2023-03-13T15:19:32.480Z,1.17
2023-03-13T15:22:00.120Z,1.30
2023-03-13T15:24:27.895Z,1.40
2023-03-13T15:26:55.384Z,1.10
2023-03-13T15:29:23.032Z,1.20
2023-03-13T15:31:51.006Z,0.90
2023-03-13T15:34:20.086Z,1.30
2023-03-13T15:36:47.982Z,0.90
2023-03-13T15:39:19.466Z,0.80
2023-03-13T15:41:47.498Z,1.10
2023-03-13T15:44:15.254Z,1.20
2023-03-13T15:46:43.237Z,1.10
2023-03-13T15:49:13.110Z,1.00
2023-03-13T15:51:40.668Z,1.23
2023-03-13T15:54:08.629Z,0.60
2023-03-13T15:56:38.011Z,1.10
2023-03-13T15:59:13.729Z,1.00
2023-03-13T16:01:42.414Z,1.00
2023-03-13T16:04:10.879Z,1.03
2023-03-13T16:06:38.886Z,0.90
2023-03-13T16:09:07.959Z,1.13
2023-03-13T16:11:35.574Z,1.20
2023-03-13T16:14:06.516Z,1.10
2023-03-13T16:16:37.587Z,1.13
2023-03-13T16:19:07.568Z,0.90
2023-03-13T16:21:38.708Z,1.33
2023-03-13T16:24:06.717Z,1.00
2023-03-13T16:26:34.347Z,1.23
2023-03-13T16:29:02.398Z,1.00
2023-03-13T16:31:32.561Z,1.10
2023-03-13T16:34:01.266Z,1.40
2023-03-13T16:36:31.916Z,1.80
2023-03-13T16:39:02.337Z,1.37
2023-03-13T16:41:32.815Z,1.47
2023-03-13T16:44:00.736Z,1.40
2023-03-13T16:47:02.768Z,1.30
2023-03-13T16:49:32.403Z,1.50
2023-03-13T16:51:59.843Z,1.40
2023-03-13T16:54:28.693Z,1.13
2023-03-13T16:56:56.223Z,1.60
2023-03-13T16:59:24.487Z,1.30
2023-03-13T17:01:52.446Z,1.83
2023-03-13T17:04:20.012Z,1.50
2023-03-13T17:06:48.002Z,1.60
2023-03-13T17:09:17.740Z,1.50
2023-03-13T17:11:46.473Z,1.70
2023-03-13T17:14:16.806Z,2.10
2023-03-13T17:16:45.529Z,1.60
2023-03-13T17:19:14.860Z,1.83
2023-03-13T17:21:42.504Z,1.50
2023-03-13T17:24:15.183Z,1.77
2023-03-13T17:26:42.837Z,1.40
2023-03-13T17:29:19.080Z,1.60
2023-03-13T17:31:46.855Z,1.53
2023-03-13T17:34:15.447Z,1.97
2023-03-13T17:36:43.646Z,1.90
2023-03-13T17:39:13.926Z,1.77
2023-03-13T17:41:41.940Z,1.90
2023-03-13T17:44:09.580Z,1.63
2023-03-13T17:46:41.633Z,1.77
2023-03-13T17:49:13.220Z,1.97
2023-03-13T17:51:41.707Z,1.90
2023-03-13T17:54:10.098Z,1.70
2023-03-13T17:56:40.413Z,1.63
2023-03-13T17:59:15.705Z,1.63
2023-03-13T18:04:14.641Z,1.60
2023-03-13T18:06:45.527Z,1.90
2023-03-13T18:09:18.978Z,2.10
2023-03-13T18:11:47.756Z,2.00
2023-03-13T18:14:15.504Z,2.07
2023-03-13T18:16:48.634Z,1.73
2023-03-13T18:19:25.066Z,2.30
2023-03-13T18:21:54.564Z,1.77
2023-03-13T18:24:22.484Z,1.80
2023-03-13T18:26:50.691Z,2.07
2023-03-13T18:29:27.136Z,2.30
2023-03-13T18:31:56.676Z,2.17
2023-03-13T18:34:25.790Z,1.70
2023-03-13T18:36:54.923Z,2.00
2023-03-13T18:39:22.519Z,1.87
2023-03-13T18:41:52.445Z,2.70
2023-03-13T18:44:21.079Z,1.80
2023-03-13T18:46:50.147Z,2.17
2023-03-13T18:49:22.145Z,2.10
2023-03-13T18:51:52.074Z,1.80
2023-03-13T18:54:20.306Z,1.80
2023-03-13T18:56:48.034Z,2.03
2023-03-13T18:59:21.608Z,2.03
2023-03-13T19:01:49.860Z,2.60
2023-03-13T19:04:18.606Z,2.10
2023-03-13T19:06:47.046Z,1.80
2023-03-13T19:09:42.375Z,1.83
2023-03-13T19:12:10.386Z,1.47
2023-03-13T19:14:38.030Z,2.30
2023-03-13T19:17:24.407Z,1.90
2023-03-13T19:19:57.175Z,3.20
2023-03-13T19:22:26.785Z,1.70
2023-03-13T19:24:54.460Z,1.30
2023-03-13T19:27:22.091Z,1.90
2023-03-13T19:29:50.157Z,2.20
2023-03-13T19:32:18.868Z,2.20
2023-03-13T19:34:46.431Z,1.40
2023-03-13T19:37:15.920Z,2.07
2023-03-13T19:39:43.643Z,1.70
2023-03-13T19:42:11.228Z,1.77
2023-03-13T19:44:40.484Z,1.87
2023-03-13T19:47:14.863Z,1.50
2023-03-13T19:49:42.720Z,1.80
2023-03-13T19:52:10.408Z,1.70
2023-03-13T19:54:37.940Z,1.73
2023-03-13T19:57:05.890Z,1.87
2023-03-13T19:59:35.449Z,1.50
2023-03-13T20:02:06.372Z,3.00
2023-03-13T20:04:34.654Z,1.67
2023-03-13T20:07:02.502Z,1.40
2023-03-13T20:09:30.144Z,1.70
2023-03-13T20:11:57.986Z,1.60
2023-03-13T20:14:25.508Z,1.70
2023-03-13T20:16:53.014Z,1.60
2023-03-13T20:19:21.568Z,1.60
2023-03-13T20:21:49.197Z,1.57
2023-03-13T20:24:18.022Z,1.70
2023-03-13T20:26:45.691Z,1.70
2023-03-13T20:29:13.190Z,1.60
2023-03-13T20:31:40.756Z,1.93
2023-03-13T20:34:08.348Z,1.77
2023-03-13T20:36:35.904Z,1.23
2023-03-13T20:39:04.175Z,1.70
2023-03-13T20:41:34.124Z,1.37
2023-03-13T20:44:01.682Z,1.73
2023-03-13T20:46:29.265Z,1.60
2023-03-13T20:48:58.854Z,1.00
2023-03-13T20:51:27.865Z,1.30
2023-03-13T20:53:55.389Z,1.30
2023-03-13T20:56:22.899Z,1.93
2023-03-13T20:58:50.590Z,1.40
2023-03-13T21:01:19.593Z,1.30
2023-03-13T21:03:47.391Z,1.57
2023-03-13T21:06:17.173Z,1.70
2023-03-13T21:08:46.176Z,1.73
2023-03-13T21:11:18.898Z,1.60
2023-03-13T21:13:47.476Z,1.27
2023-03-13T21:16:15.861Z,1.60
2023-03-13T21:18:46.936Z,1.40
2023-03-13T21:21:17.510Z,1.57
2023-03-13T21:23:46.364Z,1.47
2023-03-13T21:26:14.971Z,1.50
2023-03-13T21:28:42.721Z,2.67
2023-03-13T21:31:12.923Z,1.50
2023-03-13T21:33:41.553Z,1.40
2023-03-13T21:36:11.212Z,1.70
2023-03-13T21:38:39.821Z,1.40
2023-03-13T21:41:13.138Z,1.67
2023-03-13T21:43:41.759Z,1.70
2023-03-13T21:46:15.141Z,1.50
2023-03-13T21:51:13.831Z,1.47
2023-03-13T21:53:42.287Z,1.87
2023-03-13T21:56:15.259Z,1.43
2023-03-13T21:58:45.405Z,1.40
2023-03-13T22:01:14.411Z,1.43
2023-03-13T22:03:42.332Z,1.73
2023-03-13T22:06:22.648Z,1.50
2023-03-13T22:08:50.828Z,1.47
2023-03-13T22:11:19.538Z,1.90
2023-03-13T22:13:46.980Z,1.30
2023-03-13T22:16:14.416Z,1.67
2023-03-13T22:18:43.241Z,1.80
2023-03-13T22:21:10.715Z,1.20
2023-03-13T22:23:38.549Z,1.80
2023-03-13T22:26:06.365Z,1.50
2023-03-13T22:28:33.925Z,1.90
2023-03-13T22:31:02.224Z,1.53
2023-03-13T22:33:29.925Z,1.57
2023-03-13T22:35:57.882Z,1.50
2023-03-13T22:38:25.443Z,1.80
2023-03-13T22:41:04.250Z,1.67
2023-03-13T22:43:32.266Z,1.50
2023-03-13T22:46:00.240Z,1.67
2023-03-13T22:48:28.012Z,1.50
2023-03-13T22:51:07.349Z,1.90
2023-03-13T22:53:37.423Z,1.80
2023-03-13T22:56:06.044Z,1.60
2023-03-13T22:58:34.317Z,1.83
2023-03-13T23:01:05.283Z,1.80
2023-03-13T23:03:33.031Z,1.73
2023-03-13T23:06:00.598Z,1.80
2023-03-13T23:08:28.156Z,1.63
2023-03-13T23:10:55.663Z,2.00
2023-03-13T23:13:23.144Z,1.83
2023-03-13T23:15:57.638Z,1.50
2023-03-13T23:18:26.504Z,1.60
2023-03-13T23:20:54.861Z,1.60
2023-03-13T23:23:22.735Z,1.90
2023-03-13T23:25:50.674Z,2.20
2023-03-13T23:28:18.244Z,2.33
2023-03-13T23:30:45.650Z,2.20
2023-03-13T23:33:13.221Z,1.80
2023-03-13T23:35:40.882Z,1.90
2023-03-13T23:38:10.710Z,2.10
2023-03-13T23:40:38.595Z,2.07
2023-03-13T23:43:06.017Z,2.17
2023-03-13T23:45:35.733Z,2.53
2023-03-13T23:48:03.318Z,2.10
2023-03-13T23:50:30.837Z,1.93
2023-03-13T23:52:58.284Z,2.10
2023-03-13T23:55:28.635Z,2.20
2023-03-13T23:57:56.169Z,2.10
